sensor_id;sensor_type;location;lat;lon;timestamp;P1;durP1;ratioP1;P2;durP2;ratioP2
64459;SDS011;50828;53.756;21.140;2022-11-15T00:04:20;30.30;;;13.40;;
64459;SDS011;50828;53.756;21.140;2022-11-15T00:09:46;36.10;;;14.40;;
64459;SDS011;50828;53.756;21.140;2022-11-15T00:15:13;30.40;;;14.30;;
64459;SDS011;50828;53.756;21.140;2022-11-15T00:20:41;32.60;;;14.00;;
64459;SDS011;50828;53.756;21.140;2022-11-15T00:26:08;31.80;;;14.10;;
64459;SDS011;50828;53.756;21.140;2022-11-15T00:31:39;30.70;;;14.50;;
64459;SDS011;50828;53.756;21.140;2022-11-15T00:37:06;32.60;;;14.20;;
64459;SDS011;50828;53.756;21.140;2022-11-15T00:42:33;35.50;;;14.90;;
64459;SDS011;50828;53.756;21.140;2022-11-15T00:48:01;33.90;;;14.50;;
64459;SDS011;50828;53.756;21.140;2022-11-15T00:53:28;34.60;;;16.30;;
64459;SDS011;50828;53.756;21.140;2022-11-15T00:58:55;36.00;;;15.50;;
64459;SDS011;50828;53.756;21.140;2022-11-15T01:04:24;33.60;;;14.60;;
64459;SDS011;50828;53.756;21.140;2022-11-15T01:09:52;32.30;;;14.90;;
64459;SDS011;50828;53.756;21.140;2022-11-15T01:15:19;34.00;;;15.10;;
64459;SDS011;50828;53.756;21.140;2022-11-15T01:20:46;33.60;;;14.60;;
64459;SDS011;50828;53.756;21.140;2022-11-15T01:26:14;35.90;;;15.00;;
64459;SDS011;50828;53.756;21.140;2022-11-15T01:31:41;38.90;;;16.00;;
64459;SDS011;50828;53.756;21.140;2022-11-15T01:37:09;36.90;;;15.50;;
64459;SDS011;50828;53.756;21.140;2022-11-15T01:42:36;37.20;;;15.60;;
64459;SDS011;50828;53.756;21.140;2022-11-15T01:48:03;38.20;;;16.00;;
64459;SDS011;50828;53.756;21.140;2022-11-15T01:53:34;34.60;;;14.90;;
64459;SDS011;50828;53.756;21.140;2022-11-15T02:04:34;37.30;;;15.40;;
64459;SDS011;50828;53.756;21.140;2022-11-15T02:10:06;36.70;;;15.40;;
64459;SDS011;50828;53.756;21.140;2022-11-15T02:15:37;36.70;;;16.30;;
64459;SDS011;50828;53.756;21.140;2022-11-15T02:21:16;34.80;;;15.70;;
64459;SDS011;50828;53.756;21.140;2022-11-15T02:26:56;39.00;;;15.90;;
64459;SDS011;50828;53.756;21.140;2022-11-15T02:32:45;37.40;;;15.40;;
64459;SDS011;50828;53.756;21.140;2022-11-15T02:38:20;41.80;;;16.90;;
64459;SDS011;50828;53.756;21.140;2022-11-15T02:43:56;38.90;;;17.20;;
64459;SDS011;50828;53.756;21.140;2022-11-15T02:49:29;35.80;;;15.60;;
64459;SDS011;50828;53.756;21.140;2022-11-15T02:54:59;40.00;;;17.30;;
64459;SDS011;50828;53.756;21.140;2022-11-15T03:00:27;39.30;;;16.60;;
64459;SDS011;50828;53.756;21.140;2022-11-15T03:06:00;42.20;;;17.30;;
64459;SDS011;50828;53.756;21.140;2022-11-15T03:11:34;38.00;;;16.40;;
64459;SDS011;50828;53.756;21.140;2022-11-15T03:17:08;38.90;;;16.80;;
64459;SDS011;50828;53.756;21.140;2022-11-15T03:22:42;40.70;;;15.80;;
64459;SDS011;50828;53.756;21.140;2022-11-15T03:28:13;37.60;;;17.00;;
64459;SDS011;50828;53.756;21.140;2022-11-15T03:33:45;39.90;;;17.20;;
64459;SDS011;50828;53.756;21.140;2022-11-15T03:39:14;39.00;;;16.30;;
64459;SDS011;50828;53.756;21.140;2022-11-15T03:44:44;40.70;;;17.50;;
64459;SDS011;50828;53.756;21.140;2022-11-15T03:50:18;39.80;;;16.60;;
64459;SDS011;50828;53.756;21.140;2022-11-15T03:55:47;41.60;;;17.70;;
64459;SDS011;50828;53.756;21.140;2022-11-15T04:01:14;52.40;;;20.20;;
64459;SDS011;50828;53.756;21.140;2022-11-15T04:06:41;49.50;;;19.80;;
64459;SDS011;50828;53.756;21.140;2022-11-15T04:12:08;49.50;;;19.30;;
64459;SDS011;50828;53.756;21.140;2022-11-15T04:17:35;52.00;;;20.30;;
64459;SDS011;50828;53.756;21.140;2022-11-15T04:23:04;56.80;;;19.90;;
64459;SDS011;50828;53.756;21.140;2022-11-15T04:28:53;49.70;;;19.40;;
64459;SDS011;50828;53.756;21.140;2022-11-15T04:34:39;55.60;;;20.10;;
64459;SDS011;50828;53.756;21.140;2022-11-15T04:40:07;51.30;;;20.40;;
64459;SDS011;50828;53.756;21.140;2022-11-15T04:45:35;53.40;;;20.50;;
64459;SDS011;50828;53.756;21.140;2022-11-15T04:51:02;47.80;;;19.00;;
64459;SDS011;50828;53.756;21.140;2022-11-15T04:56:29;56.40;;;20.50;;
64459;SDS011;50828;53.756;21.140;2022-11-15T05:01:56;49.70;;;19.40;;
64459;SDS011;50828;53.756;21.140;2022-11-15T05:07:23;51.60;;;20.40;;
64459;SDS011;50828;53.756;21.140;2022-11-15T05:12:50;48.70;;;19.10;;
64459;SDS011;50828;53.756;21.140;2022-11-15T05:18:17;59.70;;;20.60;;
64459;SDS011;50828;53.756;21.140;2022-11-15T05:23:46;56.10;;;21.10;;
64459;SDS011;50828;53.756;21.140;2022-11-15T05:29:13;53.90;;;19.90;;
64459;SDS011;50828;53.756;21.140;2022-11-15T05:34:40;53.40;;;19.90;;
64459;SDS011;50828;53.756;21.140;2022-11-15T05:40:08;60.60;;;22.90;;
64459;SDS011;50828;53.756;21.140;2022-11-15T05:45:36;55.50;;;22.30;;
64459;SDS011;50828;53.756;21.140;2022-11-15T05:51:04;54.80;;;21.60;;
64459;SDS011;50828;53.756;21.140;2022-11-15T05:56:32;51.70;;;20.30;;
64459;SDS011;50828;53.756;21.140;2022-11-15T06:01:59;55.90;;;20.50;;
64459;SDS011;50828;53.756;21.140;2022-11-15T06:07:27;63.10;;;23.50;;
64459;SDS011;50828;53.756;21.140;2022-11-15T06:12:59;56.20;;;21.90;;
64459;SDS011;50828;53.756;21.140;2022-11-15T06:18:27;64.10;;;22.20;;
64459;SDS011;50828;53.756;21.140;2022-11-15T06:23:56;59.00;;;21.80;;
64459;SDS011;50828;53.756;21.140;2022-11-15T06:29:23;54.30;;;21.00;;
64459;SDS011;50828;53.756;21.140;2022-11-15T06:34:50;52.70;;;21.10;;
64459;SDS011;50828;53.756;21.140;2022-11-15T06:40:17;61.90;;;22.30;;
64459;SDS011;50828;53.756;21.140;2022-11-15T06:45:44;53.30;;;20.90;;
64459;SDS011;50828;53.756;21.140;2022-11-15T06:51:11;65.30;;;22.70;;
64459;SDS011;50828;53.756;21.140;2022-11-15T06:56:39;56.60;;;21.60;;
64459;SDS011;50828;53.756;21.140;2022-11-15T07:02:10;58.60;;;22.00;;
64459;SDS011;50828;53.756;21.140;2022-11-15T07:07:38;59.80;;;22.20;;
64459;SDS011;50828;53.756;21.140;2022-11-15T07:13:06;57.60;;;22.40;;
64459;SDS011;50828;53.756;21.140;2022-11-15T07:18:35;54.70;;;20.80;;
64459;SDS011;50828;53.756;21.140;2022-11-15T07:24:03;57.50;;;21.50;;
64459;SDS011;50828;53.756;21.140;2022-11-15T07:29:31;52.00;;;21.00;;
64459;SDS011;50828;53.756;21.140;2022-11-15T07:34:59;58.10;;;20.40;;
64459;SDS011;50828;53.756;21.140;2022-11-15T07:40:26;47.50;;;19.50;;
64459;SDS011;50828;53.756;21.140;2022-11-15T07:45:55;43.70;;;19.00;;
64459;SDS011;50828;53.756;21.140;2022-11-15T07:51:22;41.50;;;18.20;;
64459;SDS011;50828;53.756;21.140;2022-11-15T07:56:50;45.30;;;18.80;;
64459;SDS011;50828;53.756;21.140;2022-11-15T08:02:17;46.00;;;18.80;;
64459;SDS011;50828;53.756;21.140;2022-11-15T08:07:49;45.10;;;17.50;;
64459;SDS011;50828;53.756;21.140;2022-11-15T08:13:16;47.60;;;18.00;;
64459;SDS011;50828;53.756;21.140;2022-11-15T08:18:44;44.60;;;17.10;;
64459;SDS011;50828;53.756;21.140;2022-11-15T08:24:11;42.50;;;17.10;;
64459;SDS011;50828;53.756;21.140;2022-11-15T08:29:39;40.00;;;16.40;;
64459;SDS011;50828;53.756;21.140;2022-11-15T08:35:07;41.10;;;16.40;;
64459;SDS011;50828;53.756;21.140;2022-11-15T08:40:34;46.50;;;16.60;;
64459;SDS011;50828;53.756;21.140;2022-11-15T08:46:01;41.80;;;16.90;;
64459;SDS011;50828;53.756;21.140;2022-11-15T08:51:28;41.20;;;16.80;;
64459;SDS011;50828;53.756;21.140;2022-11-15T08:56:55;41.50;;;16.60;;
64459;SDS011;50828;53.756;21.140;2022-11-15T09:02:25;44.90;;;16.20;;
64459;SDS011;50828;53.756;21.140;2022-11-15T09:07:54;41.70;;;16.70;;
64459;SDS011;50828;53.756;21.140;2022-11-15T09:13:21;40.30;;;14.40;;
64459;SDS011;50828;53.756;21.140;2022-11-15T09:18:48;41.80;;;15.20;;
64459;SDS011;50828;53.756;21.140;2022-11-15T09:24:15;40.50;;;14.10;;
64459;SDS011;50828;53.756;21.140;2022-11-15T09:29:42;39.00;;;15.50;;
64459;SDS011;50828;53.756;21.140;2022-11-15T09:35:09;38.20;;;15.50;;
64459;SDS011;50828;53.756;21.140;2022-11-15T09:40:37;46.70;;;16.00;;
64459;SDS011;50828;53.756;21.140;2022-11-15T09:46:07;45.60;;;16.00;;
64459;SDS011;50828;53.756;21.140;2022-11-15T09:51:41;40.00;;;15.20;;
64459;SDS011;50828;53.756;21.140;2022-11-15T09:56:54;43.90;;;14.70;;
64459;SDS011;50828;53.756;21.140;2022-11-15T10:02:21;36.30;;;13.30;;
64459;SDS011;50828;53.756;21.140;2022-11-15T10:07:46;39.10;;;14.50;;
64459;SDS011;50828;53.756;21.140;2022-11-15T10:13:01;36.50;;;14.50;;
64459;SDS011;50828;53.756;21.140;2022-11-15T10:18:20;46.30;;;16.70;;
64459;SDS011;50828;53.756;21.140;2022-11-15T10:23:37;43.30;;;18.50;;
64459;SDS011;50828;53.756;21.140;2022-11-15T10:28:46;47.80;;;18.00;;
64459;SDS011;50828;53.756;21.140;2022-11-15T10:33:56;39.60;;;16.20;;
64459;SDS011;50828;53.756;21.140;2022-11-15T10:39:18;46.20;;;17.20;;
64459;SDS011;50828;53.756;21.140;2022-11-15T10:44:28;38.00;;;15.40;;
64459;SDS011;50828;53.756;21.140;2022-11-15T10:49:37;50.20;;;17.60;;
64459;SDS011;50828;53.756;21.140;2022-11-15T10:55:03;41.80;;;16.50;;
64459;SDS011;50828;53.756;21.140;2022-11-15T11:00:32;36.70;;;15.70;;
64459;SDS011;50828;53.756;21.140;2022-11-15T11:05:43;37.40;;;14.00;;
64459;SDS011;50828;53.756;21.140;2022-11-15T11:10:55;34.80;;;11.90;;
64459;SDS011;50828;53.756;21.140;2022-11-15T11:16:21;37.00;;;13.60;;
64459;SDS011;50828;53.756;21.140;2022-11-15T11:21:46;35.40;;;13.40;;
64459;SDS011;50828;53.756;21.140;2022-11-15T11:27:07;39.70;;;15.00;;
64459;SDS011;50828;53.756;21.140;2022-11-15T11:32:34;52.10;;;18.80;;
64459;SDS011;50828;53.756;21.140;2022-11-15T11:38:05;48.40;;;17.90;;
64459;SDS011;50828;53.756;21.140;2022-11-15T11:43:26;43.50;;;16.50;;
64459;SDS011;50828;53.756;21.140;2022-11-15T11:48:44;41.50;;;14.50;;
64459;SDS011;50828;53.756;21.140;2022-11-15T11:53:57;35.40;;;14.90;;
64459;SDS011;50828;53.756;21.140;2022-11-15T11:59:12;33.10;;;12.60;;
64459;SDS011;50828;53.756;21.140;2022-11-15T12:04:30;33.90;;;12.00;;
64459;SDS011;50828;53.756;21.140;2022-11-15T12:09:44;41.40;;;16.70;;
64459;SDS011;50828;53.756;21.140;2022-11-15T12:15:00;36.40;;;15.00;;
64459;SDS011;50828;53.756;21.140;2022-11-15T12:20:18;39.30;;;15.50;;
64459;SDS011;50828;53.756;21.140;2022-11-15T12:25:30;40.70;;;15.90;;
64459;SDS011;50828;53.756;21.140;2022-11-15T12:30:44;50.60;;;18.10;;
64459;SDS011;50828;53.756;21.140;2022-11-15T12:36:00;35.30;;;14.30;;
64459;SDS011;50828;53.756;21.140;2022-11-15T12:41:16;29.00;;;10.80;;
64459;SDS011;50828;53.756;21.140;2022-11-15T12:52:29;47.40;;;17.80;;
64459;SDS011;50828;53.756;21.140;2022-11-15T13:02:51;55.90;;;27.00;;
64459;SDS011;50828;53.756;21.140;2022-11-15T13:08:37;29.90;;;13.50;;
64459;SDS011;50828;53.756;21.140;2022-11-15T13:13:52;25.80;;;11.30;;
64459;SDS011;50828;53.756;21.140;2022-11-15T13:19:01;26.50;;;10.60;;
64459;SDS011;50828;53.756;21.140;2022-11-15T13:24:16;27.20;;;9.30;;
64459;SDS011;50828;53.756;21.140;2022-11-15T13:29:25;22.50;;;9.20;;
64459;SDS011;50828;53.756;21.140;2022-11-15T13:34:33;21.80;;;9.20;;
64459;SDS011;50828;53.756;21.140;2022-11-15T13:45:26;22.50;;;9.30;;
64459;SDS011;50828;53.756;21.140;2022-11-15T13:50:35;23.60;;;9.10;;
64459;SDS011;50828;53.756;21.140;2022-11-15T13:55:46;24.50;;;9.60;;
64459;SDS011;50828;53.756;21.140;2022-11-15T14:00:59;27.50;;;10.10;;
64459;SDS011;50828;53.756;21.140;2022-11-15T14:06:10;29.00;;;10.40;;
64459;SDS011;50828;53.756;21.140;2022-11-15T14:11:20;23.70;;;9.50;;
64459;SDS011;50828;53.756;21.140;2022-11-15T14:16:33;23.70;;;9.40;;
64459;SDS011;50828;53.756;21.140;2022-11-15T14:27:24;23.10;;;9.30;;
64459;SDS011;50828;53.756;21.140;2022-11-15T14:32:41;19.90;;;8.10;;
64459;SDS011;50828;53.756;21.140;2022-11-15T14:37:52;25.60;;;9.20;;
64459;SDS011;50828;53.756;21.140;2022-11-15T14:43:00;22.00;;;9.20;;
64459;SDS011;50828;53.756;21.140;2022-11-15T14:48:08;25.20;;;10.70;;
64459;SDS011;50828;53.756;21.140;2022-11-15T14:53:17;28.00;;;11.40;;
64459;SDS011;50828;53.756;21.140;2022-11-15T14:58:26;197.80;;;54.10;;
64459;SDS011;50828;53.756;21.140;2022-11-15T15:03:35;238.40;;;63.80;;
64459;SDS011;50828;53.756;21.140;2022-11-15T15:08:43;534.00;;;151.70;;
64459;SDS011;50828;53.756;21.140;2022-11-15T15:13:56;477.40;;;120.40;;
64459;SDS011;50828;53.756;21.140;2022-11-15T15:19:05;401.60;;;89.70;;
64459;SDS011;50828;53.756;21.140;2022-11-15T15:24:14;308.40;;;69.50;;
64459;SDS011;50828;53.756;21.140;2022-11-15T15:29:23;386.50;;;90.10;;
64459;SDS011;50828;53.756;21.140;2022-11-15T15:34:31;377.90;;;89.70;;
64459;SDS011;50828;53.756;21.140;2022-11-15T15:39:40;486.00;;;124.20;;
64459;SDS011;50828;53.756;21.140;2022-11-15T15:44:48;686.90;;;176.70;;
64459;SDS011;50828;53.756;21.140;2022-11-15T15:49:57;628.50;;;151.80;;
64459;SDS011;50828;53.756;21.140;2022-11-15T15:55:05;509.20;;;122.40;;
64459;SDS011;50828;53.756;21.140;2022-11-15T16:00:15;487.60;;;115.20;;
64459;SDS011;50828;53.756;21.140;2022-11-15T16:05:25;382.20;;;86.40;;
64459;SDS011;50828;53.756;21.140;2022-11-15T16:10:34;571.30;;;140.00;;
64459;SDS011;50828;53.756;21.140;2022-11-15T16:15:43;438.50;;;100.10;;
64459;SDS011;50828;53.756;21.140;2022-11-15T16:20:55;443.30;;;99.70;;
64459;SDS011;50828;53.756;21.140;2022-11-15T16:26:06;365.80;;;83.70;;
64459;SDS011;50828;53.756;21.140;2022-11-15T16:31:27;186.60;;;44.70;;
64459;SDS011;50828;53.756;21.140;2022-11-15T16:36:36;85.60;;;24.20;;
64459;SDS011;50828;53.756;21.140;2022-11-15T16:41:44;59.20;;;19.00;;
64459;SDS011;50828;53.756;21.140;2022-11-15T16:46:53;58.10;;;17.20;;
64459;SDS011;50828;53.756;21.140;2022-11-15T16:52:01;39.10;;;13.80;;
64459;SDS011;50828;53.756;21.140;2022-11-15T16:57:10;45.40;;;15.40;;
64459;SDS011;50828;53.756;21.140;2022-11-15T17:02:20;84.10;;;20.20;;
64459;SDS011;50828;53.756;21.140;2022-11-15T17:07:28;465.50;;;133.20;;
64459;SDS011;50828;53.756;21.140;2022-11-15T17:12:37;414.50;;;102.00;;
64459;SDS011;50828;53.756;21.140;2022-11-15T17:17:45;222.60;;;61.60;;
64459;SDS011;50828;53.756;21.140;2022-11-15T17:22:59;180.60;;;46.50;;
64459;SDS011;50828;53.756;21.140;2022-11-15T17:28:07;195.30;;;53.20;;
64459;SDS011;50828;53.756;21.140;2022-11-15T17:33:17;261.90;;;70.50;;
64459;SDS011;50828;53.756;21.140;2022-11-15T17:38:25;215.50;;;68.00;;
64459;SDS011;50828;53.756;21.140;2022-11-15T17:43:34;210.60;;;64.80;;
64459;SDS011;50828;53.756;21.140;2022-11-15T17:48:43;111.30;;;38.90;;
64459;SDS011;50828;53.756;21.140;2022-11-15T17:53:52;100.60;;;33.30;;
64459;SDS011;50828;53.756;21.140;2022-11-15T17:59:01;86.40;;;26.60;;
64459;SDS011;50828;53.756;21.140;2022-11-15T18:04:17;78.70;;;21.80;;
64459;SDS011;50828;53.756;21.140;2022-11-15T18:09:25;77.30;;;25.10;;
64459;SDS011;50828;53.756;21.140;2022-11-15T18:14:34;66.20;;;25.00;;
64459;SDS011;50828;53.756;21.140;2022-11-15T18:19:42;190.00;;;60.80;;
64459;SDS011;50828;53.756;21.140;2022-11-15T18:24:52;156.70;;;51.00;;
64459;SDS011;50828;53.756;21.140;2022-11-15T18:30:01;136.00;;;44.90;;
64459;SDS011;50828;53.756;21.140;2022-11-15T18:35:10;156.20;;;48.60;;
64459;SDS011;50828;53.756;21.140;2022-11-15T18:40:18;206.00;;;66.00;;
64459;SDS011;50828;53.756;21.140;2022-11-15T18:45:26;223.40;;;65.90;;
64459;SDS011;50828;53.756;21.140;2022-11-15T18:50:35;305.60;;;83.50;;
64459;SDS011;50828;53.756;21.140;2022-11-15T18:55:44;232.90;;;70.40;;
64459;SDS011;50828;53.756;21.140;2022-11-15T19:00:52;174.20;;;55.30;;
64459;SDS011;50828;53.756;21.140;2022-11-15T19:06:10;129.70;;;41.20;;
64459;SDS011;50828;53.756;21.140;2022-11-15T19:11:20;137.20;;;43.50;;
64459;SDS011;50828;53.756;21.140;2022-11-15T19:16:32;91.30;;;31.10;;
64459;SDS011;50828;53.756;21.140;2022-11-15T19:21:42;62.40;;;21.90;;
64459;SDS011;50828;53.756;21.140;2022-11-15T19:26:50;56.20;;;20.70;;
64459;SDS011;50828;53.756;21.140;2022-11-15T19:32:00;82.00;;;24.40;;
64459;SDS011;50828;53.756;21.140;2022-11-15T19:37:09;55.80;;;18.80;;
64459;SDS011;50828;53.756;21.140;2022-11-15T19:42:17;53.90;;;16.50;;
64459;SDS011;50828;53.756;21.140;2022-11-15T19:47:27;45.40;;;16.00;;
64459;SDS011;50828;53.756;21.140;2022-11-15T19:52:35;60.60;;;19.10;;
64459;SDS011;50828;53.756;21.140;2022-11-15T19:57:44;65.30;;;21.30;;
64459;SDS011;50828;53.756;21.140;2022-11-15T20:02:53;59.50;;;20.10;;
64459;SDS011;50828;53.756;21.140;2022-11-15T20:08:01;46.20;;;17.60;;
64459;SDS011;50828;53.756;21.140;2022-11-15T20:13:11;43.10;;;16.00;;
64459;SDS011;50828;53.756;21.140;2022-11-15T20:18:19;37.80;;;14.10;;
64459;SDS011;50828;53.756;21.140;2022-11-15T20:23:29;34.30;;;12.50;;
64459;SDS011;50828;53.756;21.140;2022-11-15T20:28:37;40.90;;;13.90;;
64459;SDS011;50828;53.756;21.140;2022-11-15T20:33:48;40.70;;;14.60;;
64459;SDS011;50828;53.756;21.140;2022-11-15T20:38:57;44.20;;;14.60;;
64459;SDS011;50828;53.756;21.140;2022-11-15T20:44:06;51.50;;;17.50;;
64459;SDS011;50828;53.756;21.140;2022-11-15T20:49:15;49.60;;;18.00;;
64459;SDS011;50828;53.756;21.140;2022-11-15T20:54:23;51.20;;;17.90;;
64459;SDS011;50828;53.756;21.140;2022-11-15T20:59:32;41.10;;;16.20;;
64459;SDS011;50828;53.756;21.140;2022-11-15T21:04:40;39.40;;;14.00;;
64459;SDS011;50828;53.756;21.140;2022-11-15T21:09:48;34.00;;;12.70;;
64459;SDS011;50828;53.756;21.140;2022-11-15T21:15:16;33.50;;;11.90;;
64459;SDS011;50828;53.756;21.140;2022-11-15T21:20:24;38.40;;;12.40;;
64459;SDS011;50828;53.756;21.140;2022-11-15T21:25:33;38.70;;;12.90;;
64459;SDS011;50828;53.756;21.140;2022-11-15T21:30:42;34.20;;;12.30;;
64459;SDS011;50828;53.756;21.140;2022-11-15T21:36:00;35.50;;;12.50;;
64459;SDS011;50828;53.756;21.140;2022-11-15T21:41:09;34.00;;;12.90;;
64459;SDS011;50828;53.756;21.140;2022-11-15T21:46:17;35.50;;;12.40;;
64459;SDS011;50828;53.756;21.140;2022-11-15T21:51:25;35.00;;;12.00;;
64459;SDS011;50828;53.756;21.140;2022-11-15T21:56:35;37.60;;;12.30;;
64459;SDS011;50828;53.756;21.140;2022-11-15T22:01:43;32.70;;;11.80;;
64459;SDS011;50828;53.756;21.140;2022-11-15T22:07:10;30.70;;;11.90;;
64459;SDS011;50828;53.756;21.140;2022-11-15T22:12:18;35.60;;;11.60;;
64459;SDS011;50828;53.756;21.140;2022-11-15T22:17:33;31.60;;;11.30;;
64459;SDS011;50828;53.756;21.140;2022-11-15T22:23:05;27.50;;;10.40;;
64459;SDS011;50828;53.756;21.140;2022-11-15T22:28:14;29.50;;;10.20;;
64459;SDS011;50828;53.756;21.140;2022-11-15T22:33:24;32.10;;;10.70;;
64459;SDS011;50828;53.756;21.140;2022-11-15T22:38:34;30.40;;;10.70;;
64459;SDS011;50828;53.756;21.140;2022-11-15T22:43:43;29.80;;;9.70;;
64459;SDS011;50828;53.756;21.140;2022-11-15T22:48:52;25.10;;;9.30;;
64459;SDS011;50828;53.756;21.140;2022-11-15T22:54:07;24.80;;;9.50;;
64459;SDS011;50828;53.756;21.140;2022-11-15T22:59:15;27.40;;;9.60;;
64459;SDS011;50828;53.756;21.140;2022-11-15T23:04:24;25.50;;;9.40;;
64459;SDS011;50828;53.756;21.140;2022-11-15T23:09:33;25.30;;;9.20;;
64459;SDS011;50828;53.756;21.140;2022-11-15T23:14:42;30.10;;;9.90;;
64459;SDS011;50828;53.756;21.140;2022-11-15T23:19:51;30.50;;;9.70;;
64459;SDS011;50828;53.756;21.140;2022-11-15T23:24:59;28.00;;;10.40;;
64459;SDS011;50828;53.756;21.140;2022-11-15T23:30:08;34.60;;;11.10;;
64459;SDS011;50828;53.756;21.140;2022-11-15T23:35:53;32.30;;;11.00;;
64459;SDS011;50828;53.756;21.140;2022-11-15T23:41:03;32.30;;;10.60;;
64459;SDS011;50828;53.756;21.140;2022-11-15T23:46:11;31.60;;;10.90;;
64459;SDS011;50828;53.756;21.140;2022-11-15T23:51:20;31.00;;;11.10;;
64459;SDS011;50828;53.756;21.140;2022-11-15T23:56:29;30.20;;;10.40;;
